Terminal Aerodrome Forecast
Issued by NWS

Home | Current Version | Previous Version | Text Only | Print | Product List | Glossary On
Versions: 1 2 3 4 5 6 7 8 9 10 11 12 13 14 15 16
000
FTUS44 KSJT 220500
TAFJCT
TAF
KJCT 220520Z 2206/2306 14011KT P6SM SKC
     FM221000 16006KT P6SM BKN020
     FM221600 18014G20KT P6SM SKC
     FM230100 15010KT P6SM SKC=

USA.gov is the U.S. government's official web portal to all federal, state and local government web resources and services.